Time;durP1;ratioP1;P1;durP2;ratioP2;P2;SDS_P1;SDS_P2;PMS_P1;PMS_P2;Temp;Humidity;BMP_temperature;BMP_pressure;BME280_temperature;BME280_humidity;BME280_pressure;Samples;Min_cycle;Max_cycle;Signal;HPM_P1;HPM_P2
2022/05/10 00:01:51;;;;;;;6.97;4.32;;;10.90;99.90;;;;;;5035789;28;20457;-84
2022/05/10 00:04:17;;;;;;;5.57;4.22;;;10.80;99.90;;;;;;5034103;28;20797;-83
2022/05/10 00:06:47;;;;;;;6.75;4.18;;;10.60;99.90;;;;;;5034746;28;20437;-83
2022/05/10 00:09:15;;;;;;;7.38;4.50;;;10.60;99.90;;;;;;5052482;28;20367;-84
2022/05/10 00:11:42;;;;;;;7.45;4.30;;;10.40;99.90;;;;;;5053157;28;20462;-84
2022/05/10 00:14:08;;;;;;;6.43;5.13;;;10.40;99.90;;;;;;5035893;28;20387;-84
2022/05/10 00:16:39;;;;;;;6.18;4.63;;;10.30;99.90;;;;;;5037857;28;20464;-84
2022/05/10 00:19:05;;;;;;;6.00;4.18;;;10.20;99.90;;;;;;5034932;28;20390;-85
2022/05/10 00:21:30;;;;;;;5.43;4.47;;;10.10;99.90;;;;;;5035160;28;20395;-84
2022/05/10 00:23:56;;;;;;;5.73;4.80;;;10.10;99.90;;;;;;5034970;28;20494;-83
2022/05/10 00:26:22;;;;;;;6.55;4.70;;;10.00;99.90;;;;;;5036479;28;20371;-83
2022/05/10 00:28:47;;;;;;;6.35;4.80;;;10.00;99.90;;;;;;5035554;28;20949;-84
2022/05/10 00:31:15;;;;;;;7.73;5.10;;;9.90;99.90;;;;;;5054290;28;20414;-84
2022/05/10 00:33:41;;;;;;;8.95;5.32;;;9.90;99.90;;;;;;5055361;28;20437;-84
2022/05/10 00:36:10;;;;;;;8.77;5.57;;;9.80;99.90;;;;;;5053442;28;20371;-83
2022/05/10 00:38:40;;;;;;;7.00;5.10;;;9.80;99.90;;;;;;5035426;28;20374;-84
2022/05/10 00:41:09;;;;;;;7.03;5.05;;;9.70;99.90;;;;;;5036902;28;20401;-82
2022/05/10 00:43:37;;;;;;;8.27;5.55;;;9.60;99.90;;;;;;5036840;28;20372;-83
2022/05/10 00:46:10;;;;;;;6.90;5.20;;;9.60;99.90;;;;;;5054477;28;20952;-83
2022/05/10 00:49:04;;;;;;;6.20;4.80;;;9.50;99.90;;;;;;5037231;28;20458;-83
2022/05/10 00:51:45;;;;;;;7.25;5.18;;;9.50;99.90;;;;;;5046477;28;20379;-82
2022/05/10 00:54:27;;;;;;;7.20;5.25;;;9.50;99.90;;;;;;5037905;28;20441;-82
2022/05/10 00:57:14;;;;;;;7.43;4.90;;;9.40;99.90;;;;;;5054458;28;20371;-82
2022/05/10 01:00:04;;;;;;;7.07;5.27;;;9.40;99.90;;;;;;5054465;28;20379;-83
2022/05/10 01:03:06;;;;;;;8.27;4.63;;;9.40;99.90;;;;;;5036575;28;20481;-83
2022/05/10 01:05:38;;;;;;;6.10;4.78;;;;;;;;;;5054186;28;20374;-83
2022/05/10 01:08:11;;;;;;;8.93;5.13;;;9.20;99.90;;;;;;5054483;28;20444;-82
2022/05/10 01:11:03;;;;;;;7.85;5.20;;;9.10;99.90;;;;;;5054200;28;20379;-82
2022/05/10 01:13:40;;;;;;;9.10;5.30;;;9.00;99.90;;;;;;5036174;28;20411;-82
2022/05/10 01:16:16;;;;;;;7.45;5.40;;;9.00;99.90;;;;;;5037055;28;20429;-82
2022/05/10 01:18:42;;;;;;;7.10;5.03;;;9.00;99.90;;;;;;5056123;28;20383;-84
2022/05/10 01:21:35;;;;;;;6.70;5.03;;;9.00;99.90;;;;;;5056393;28;20437;-82
2022/05/10 01:24:13;;;;;;;6.90;5.07;;;9.00;99.90;;;;;;5057024;28;20368;-82
2022/05/10 01:27:06;;;;;;;8.20;5.30;;;8.90;99.90;;;;;;5038569;28;20470;-82
2022/05/10 01:29:41;;;;;;;7.60;5.20;;;8.90;99.90;;;;;;5037336;28;20513;-83
2022/05/10 01:35:02;;;;;;;8.10;6.05;;;8.80;99.90;;;;;;5057684;28;20834;-81
2022/05/10 01:37:37;;;;;;;6.85;5.72;;;8.80;99.90;;;;;;5039356;28;20567;-82
2022/05/10 01:40:38;;;;;;;9.33;5.50;;;8.90;99.90;;;;;;5057297;28;20399;-82
2022/05/10 01:43:12;;;;;;;7.00;5.70;;;8.90;99.90;;;;;;4985273;28;20386;-83
2022/05/10 01:45:58;;;;;;;7.97;5.05;;;8.80;99.90;;;;;;5056266;28;20368;-83
2022/05/10 01:48:24;;;;;;;6.80;5.30;;;8.70;99.90;;;;;;5037518;28;20372;-82
2022/05/10 01:51:15;;;;;;;7.27;5.30;;;8.70;99.90;;;;;;5055309;28;20866;-83
2022/05/10 01:53:42;;;;;;;6.75;5.57;;;8.60;99.90;;;;;;5026970;28;20384;-83
2022/05/10 01:56:18;;;;;;;8.35;5.88;;;8.50;99.90;;;;;;5036178;28;20908;-83
2022/05/10 01:58:45;;;;;;;9.45;5.47;;;8.40;99.90;;;;;;5054125;28;20372;-83
2022/05/10 02:01:23;;;;;;;7.95;5.47;;;8.40;99.90;;;;;;5055817;28;20430;-84
2022/05/10 02:04:03;;;;;;;6.57;5.50;;;8.30;99.90;;;;;;5055905;28;20371;-84
2022/05/10 02:07:08;;;;;;;6.33;5.47;;;8.30;99.90;;;;;;5057309;28;20359;-84
2022/05/10 02:09:42;;;;;;;7.20;5.80;;;8.30;99.90;;;;;;5038318;28;20474;-84
2022/05/10 02:12:14;;;;;;;7.38;5.68;;;8.20;99.90;;;;;;5037105;28;20955;-84
2022/05/10 02:14:45;;;;;;;7.90;5.38;;;8.20;99.90;;;;;;5035864;28;20371;-84
2022/05/10 02:17:19;;;;;;;7.18;5.68;;;8.10;99.90;;;;;;5053917;28;20426;-84
2022/05/10 02:20:01;;;;;;;7.70;5.23;;;8.10;99.90;;;;;;5036132;28;20453;-84
2022/05/10 02:22:46;;;;;;;10.18;6.03;;;8.00;99.90;;;;;;5037376;28;20949;-83
2022/05/10 02:25:17;;;;;;;6.68;5.75;;;8.00;99.90;;;;;;5036669;28;20392;-83
2022/05/10 02:27:51;;;;;;;9.32;6.25;;;7.90;99.90;;;;;;5054440;28;20374;-83
2022/05/10 02:30:20;;;;;;;8.07;5.40;;;7.80;99.90;;;;;;5055667;28;20368;-83
2022/05/10 02:33:07;;;;;;;8.27;5.90;;;7.80;99.90;;;;;;5038034;28;20452;-83
2022/05/10 02:35:58;;;;;;;9.68;5.70;;;7.80;99.90;;;;;;5037955;28;20374;-81
2022/05/10 02:38:30;;;;;;;7.22;5.85;;;7.80;99.90;;;;;;5055424;28;20360;-82
2022/05/10 02:40:59;;;;;;;7.43;5.95;;;7.80;99.90;;;;;;5053426;28;20400;-83
2022/05/10 02:43:31;;;;;;;7.60;5.70;;;7.70;99.90;;;;;;5054959;28;20450;-82
2022/05/10 02:46:02;;;;;;;6.20;5.60;;;7.70;99.90;;;;;;5036542;28;20376;-82
2022/05/10 02:48:32;;;;;;;6.57;5.80;;;7.70;99.90;;;;;;5036189;28;20395;-83
2022/05/10 02:51:02;;;;;;;7.28;5.95;;;7.60;99.90;;;;;;5036816;28;20383;-83
2022/05/10 02:53:31;;;;;;;7.77;6.23;;;7.60;99.90;;;;;;5055107;28;20375;-83
2022/05/10 02:56:01;;;;;;;7.60;5.93;;;7.50;99.90;;;;;;5035504;28;20378;-83
2022/05/10 02:58:33;;;;;;;7.40;5.85;;;7.50;99.90;;;;;;5025038;28;20789;-83
2022/05/10 03:01:08;;;;;;;8.43;6.50;;;7.40;99.90;;;;;;5023052;28;20412;-83
2022/05/10 03:06:31;;;;;;;8.00;6.17;;;7.50;99.90;;;;;;5036926;28;20490;-83
2022/05/10 03:08:58;;;;;;;7.23;5.87;;;7.50;99.90;;;;;;5041667;28;20866;-83
2022/05/10 03:11:25;;;;;;;8.07;6.22;;;7.50;99.90;;;;;;5026946;28;20796;-83
2022/05/10 03:13:51;;;;;;;7.03;6.10;;;7.50;99.90;;;;;;5044802;28;20396;-83
2022/05/10 03:16:17;;;;;;;6.72;6.03;;;7.50;99.90;;;;;;5042248;28;20416;-83
2022/05/10 03:18:44;;;;;;;7.25;5.93;;;7.40;99.90;;;;;;5044685;28;20930;-82
2022/05/10 03:21:09;;;;;;;7.78;6.55;;;7.40;99.90;;;;;;5043225;28;20483;-81
2022/05/10 03:23:35;;;;;;;17.07;7.10;;;7.40;99.90;;;;;;5027236;28;20449;-82
2022/05/10 03:26:02;;;;;;;82.32;13.95;;;7.40;99.90;;;;;;5027635;28;20402;-82
2022/05/10 03:28:28;;;;;;;16.08;7.15;;;7.40;99.90;;;;;;5043699;28;20443;-82
2022/05/10 03:30:54;;;;;;;11.00;6.50;;;7.40;99.90;;;;;;5027671;28;20396;-82
2022/05/10 03:33:22;;;;;;;17.05;7.00;;;7.50;99.90;;;;;;5042680;28;20371;-82
2022/05/10 03:35:48;;;;;;;11.47;6.60;;;7.40;99.90;;;;;;5043798;28;20363;-83
2022/05/10 03:38:13;;;;;;;32.87;8.63;;;7.40;99.90;;;;;;5042638;28;20763;-82
2022/05/10 03:40:39;;;;;;;35.70;9.98;;;7.40;99.90;;;;;;5046391;28;20422;-83
2022/05/10 03:43:11;;;;;;;14.35;7.10;;;7.50;99.90;;;;;;5043666;28;20363;-83
2022/05/10 03:45:37;;;;;;;9.57;6.10;;;7.50;99.90;;;;;;5026251;28;20385;-83
2022/05/10 03:48:03;;;;;;;10.57;6.72;;;7.50;99.90;;;;;;5044616;28;20398;-83
2022/05/10 03:50:30;;;;;;;11.13;6.15;;;7.60;99.90;;;;;;5026071;28;20408;-82
2022/05/10 03:52:58;;;;;;;53.88;10.98;;;7.60;99.90;;;;;;5029535;28;20892;-82
2022/05/10 03:55:27;;;;;;;13.82;6.93;;;7.60;99.90;;;;;;5050143;28;20458;-82
2022/05/10 03:57:53;;;;;;;8.82;6.07;;;7.70;99.90;;;;;;5030749;28;20881;-82
2022/05/10 04:00:22;;;;;;;8.70;6.10;;;7.80;99.90;;;;;;5024904;28;20371;-83
2022/05/10 04:02:48;;;;;;;9.50;6.07;;;7.90;99.90;;;;;;5024369;28;20375;-83
2022/05/10 04:05:15;;;;;;;9.02;6.50;;;7.90;99.90;;;;;;5017774;28;20380;-83
2022/05/10 04:07:41;;;;;;;9.18;6.00;;;8.00;99.90;;;;;;5030978;28;20451;-83
2022/05/10 04:10:08;;;;;;;11.63;6.57;;;8.10;99.90;;;;;;5032950;28;20439;-82
2022/05/10 04:12:37;;;;;;;10.10;6.35;;;8.10;99.90;;;;;;5025646;28;20388;-82
2022/05/10 04:15:05;;;;;;;11.07;6.40;;;8.20;99.90;;;;;;5039153;28;20891;-83
2022/05/10 04:17:30;;;;;;;8.38;6.07;;;8.30;99.90;;;;;;5032491;28;20397;-82
2022/05/10 04:20:06;;;;;;;11.32;5.97;;;8.40;99.90;;;;;;5032119;28;20369;-82
2022/05/10 04:22:32;;;;;;;8.48;5.88;;;8.40;99.90;;;;;;5014454;28;20455;-83
2022/05/10 04:24:58;;;;;;;8.30;5.80;;;8.50;99.90;;;;;;5014054;28;20377;-83
2022/05/10 04:27:24;;;;;;;9.47;5.80;;;8.70;99.90;;;;;;5032459;28;20415;-83
2022/05/10 04:29:49;;;;;;;8.17;5.70;;;8.90;99.90;;;;;;5031041;28;20397;-83
2022/05/10 04:32:15;;;;;;;10.27;6.32;;;9.00;99.90;;;;;;5014894;28;20404;-83
2022/05/10 04:34:40;;;;;;;12.13;6.33;;;9.20;99.90;;;;;;5014505;28;20382;-82
2022/05/10 04:37:06;;;;;;;8.20;6.03;;;9.40;99.90;;;;;;5014336;28;20786;-83
2022/05/10 04:42:16;;;;;;;42.42;9.57;;;10.10;99.90;;;;;;5031785;28;20439;-84
2022/05/10 04:44:41;;;;;;;104.35;13.43;;;10.40;99.90;;;;;;5030843;28;20361;-83
2022/05/10 04:47:07;;;;;;;59.13;11.07;;;10.70;99.90;;;;;;5032154;28;21187;-83
2022/05/10 04:49:33;;;;;;;26.15;7.60;;;11.00;99.90;;;;;;5015918;28;20384;-84
2022/05/10 04:51:58;;;;;;;40.95;8.35;;;11.30;99.90;;;;;;5015235;28;20381;-84
2022/05/10 04:54:24;;;;;;;45.37;9.47;;;11.60;99.90;;;;;;5032561;28;20488;-83
2022/05/10 04:56:49;;;;;;;50.92;9.93;;;12.10;99.90;;;;;;5013203;28;20863;-84
2022/05/10 04:59:15;;;;;;;21.70;6.67;;;12.60;99.90;;;;;;5032163;28;20377;-84
2022/05/10 05:01:41;;;;;;;33.70;7.60;;;13.00;99.90;;;;;;5030677;28;20455;-83
2022/05/10 05:04:06;;;;;;;11.83;5.70;;;13.30;99.90;;;;;;5030451;28;20369;-84
2022/05/10 05:06:34;;;;;;;15.43;5.57;;;13.50;99.90;;;;;;5030566;28;20369;-83
2022/05/10 05:09:00;;;;;;;12.60;5.68;;;13.90;99.90;;;;;;5030525;28;20401;-84
2022/05/10 05:11:26;;;;;;;10.98;5.35;;;14.30;99.90;;;;;;5031192;28;20416;-83
2022/05/10 05:13:53;;;;;;;11.88;5.60;;;14.60;99.90;;;;;;5012968;28;20377;-83
2022/05/10 05:16:18;;;;;;;9.98;5.70;;;14.80;99.90;;;;;;5030955;28;20522;-82
2022/05/10 05:18:45;;;;;;;10.75;5.35;;;15.00;99.90;;;;;;5012847;28;20417;-83
2022/05/10 05:21:11;;;;;;;8.13;5.15;;;15.10;99.90;;;;;;5031624;28;20419;-82
2022/05/10 05:23:37;;;;;;;21.57;6.17;;;15.30;99.90;;;;;;5032529;28;20457;-83
2022/05/10 05:26:03;;;;;;;23.13;7.55;;;15.20;99.90;;;;;;5032719;28;20378;-83
2022/05/10 05:28:29;;;;;;;18.05;5.90;;;15.30;99.90;;;;;;5035932;28;20374;-83
2022/05/10 05:31:02;;;;;;;12.23;5.82;;;15.40;99.90;;;;;;5017953;28;20393;-83
2022/05/10 05:33:27;;;;;;;19.55;6.10;;;15.60;99.90;;;;;;5017540;28;20384;-83
2022/05/10 05:35:53;;;;;;;10.53;5.60;;;15.80;99.90;;;;;;5019241;28;20378;-84
2022/05/10 05:38:19;;;;;;;9.55;5.40;;;16.10;99.90;;;;;;5017472;28;20385;-85
2022/05/10 05:40:44;;;;;;;28.03;6.77;;;16.20;99.90;;;;;;5018422;28;20401;-83
2022/05/10 05:43:20;;;;;;;8.05;5.15;;;16.40;99.90;;;;;;5035211;28;20386;-83
2022/05/10 05:45:45;;;;;;;9.02;5.13;;;16.50;99.90;;;;;;5036647;28;20388;-83
2022/05/10 05:48:22;;;;;;;17.23;5.55;;;16.50;99.90;;;;;;5034627;28;20943;-82
2022/05/10 05:50:53;;;;;;;8.98;5.40;;;16.50;99.90;;;;;;5018653;28;20377;-84
2022/05/10 05:53:19;;;;;;;11.30;5.18;;;16.40;99.90;;;;;;5036098;28;20369;-83
2022/05/10 05:55:47;;;;;;;8.90;4.68;;;16.40;99.90;;;;;;5019279;28;20435;-83
2022/05/10 05:58:13;;;;;;;8.15;4.80;;;16.40;99.90;;;;;;5036365;28;20377;-83
2022/05/10 06:00:41;;;;;;;10.38;4.97;;;16.40;99.90;;;;;;5034872;28;20374;-83
2022/05/10 06:03:07;;;;;;;10.65;5.43;;;16.50;99.90;;;;;;5033492;28;20481;-83
2022/05/10 06:05:36;;;;;;;12.48;5.45;;;16.70;99.90;;;;;;5035139;28;20904;-83
2022/05/10 06:08:03;;;;;;;14.45;5.53;;;16.70;99.90;;;;;;5017161;28;20450;-83
2022/05/10 06:10:29;;;;;;;9.02;5.13;;;16.70;99.90;;;;;;5018026;28;20844;-83
2022/05/10 06:13:00;;;;;;;19.73;5.93;;;16.60;99.90;;;;;;5019999;28;20855;-84
2022/05/10 06:15:26;;;;;;;11.20;4.90;;;16.70;99.90;;;;;;5018244;28;20378;-84
2022/05/10 06:17:52;;;;;;;16.13;5.67;;;16.70;99.90;;;;;;5016839;28;20400;-83
2022/05/10 06:20:20;;;;;;;23.33;6.80;;;16.90;99.90;;;;;;5016507;28;20744;-83
2022/05/10 06:22:47;;;;;;;8.73;4.85;;;16.90;99.90;;;;;;5026133;28;20392;-84
2022/05/10 06:25:17;;;;;;;11.35;5.25;;;17.10;99.90;;;;;;5026073;28;20388;-83
2022/05/10 06:27:43;;;;;;;9.13;5.00;;;17.00;99.90;;;;;;5037222;28;20875;-83
2022/05/10 06:30:10;;;;;;;10.63;4.97;;;17.30;99.90;;;;;;5054134;28;20374;-83
2022/05/10 06:32:36;;;;;;;9.93;4.88;;;17.60;99.90;;;;;;5035622;28;20388;-83
2022/05/10 06:35:02;;;;;;;9.70;4.57;;;17.70;99.90;;;;;;5036748;28;20372;-85
2022/05/10 06:40:15;;;;;;;11.13;5.07;;;18.60;99.90;;;;;;5053905;28;20758;-83
2022/05/10 06:42:41;;;;;;;7.70;4.53;;;19.00;99.70;;;;;;5054213;28;20482;-83
2022/05/10 06:45:33;;;;;;;28.97;6.63;;;19.40;99.00;;;;;;5038921;28;20395;-83
2022/05/10 06:47:59;;;;;;;11.85;4.68;;;19.40;98.60;;;;;;5051579;28;20419;-83
2022/05/10 06:50:25;;;;;;;23.58;5.95;;;;;;;;;;5054371;28;20810;-83
2022/05/10 06:52:52;;;;;;;9.98;4.63;;;;;;;;;;5037407;28;20761;-84
2022/05/10 06:55:18;;;;;;;15.20;5.38;;;;;;;;;;5054568;28;20834;-85
2022/05/10 06:57:44;;;;;;;9.65;4.50;;;;;;;;;;5036090;28;20379;-84
2022/05/10 07:00:12;;;;;;;7.35;4.22;;;;;;;;;;5035168;28;20447;-84
2022/05/10 07:02:38;;;;;;;12.15;4.50;;;20.30;99.90;;;;;;5039304;28;20886;-84
2022/05/10 07:05:05;;;;;;;8.40;4.55;;;20.40;95.90;;;;;;5055782;28;20366;-82
2022/05/10 07:07:30;;;;;;;7.73;4.40;;;20.70;95.90;;;;;;5059367;28;20414;-85
2022/05/10 07:09:56;;;;;;;8.57;4.20;;;;;;;;;;5055828;28;20861;-83
2022/05/10 07:12:22;;;;;;;8.75;4.20;;;;;;;;;;5056014;28;20376;-84
2022/05/10 07:14:48;;;;;;;7.88;4.53;;;22.00;93.40;;;;;;5055723;28;20380;-83
2022/05/10 07:17:14;;;;;;;8.85;4.72;;;22.00;92.20;;;;;;5038951;28;20391;-85
2022/05/10 07:19:40;;;;;;;8.65;4.63;;;22.00;92.40;;;;;;5054233;28;20394;-85
2022/05/10 07:22:06;;;;;;;7.10;3.53;;;22.00;92.50;;;;;;5056372;28;20474;-84
2022/05/10 07:24:32;;;;;;;8.93;4.53;;;22.10;92.90;;;;;;5055924;28;20394;-84
2022/05/10 07:26:57;;;;;;;11.32;4.60;;;22.30;93.00;;;;;;5054517;28;20885;-85
2022/05/10 07:29:23;;;;;;;11.60;4.30;;;22.40;92.70;;;;;;5037553;28;20403;-85
2022/05/10 07:31:49;;;;;;;23.90;5.20;;;22.60;92.70;;;;;;5055234;28;20368;-85
2022/05/10 07:34:15;;;;;;;14.52;4.35;;;22.70;92.80;;;;;;5052822;28;20475;-87
2022/05/10 07:36:41;;;;;;;8.60;3.92;;;23.00;91.70;;;;;;5053647;28;20984;-86
2022/05/10 07:39:10;;;;;;;10.32;4.13;;;23.30;91.50;;;;;;5054154;28;20869;-86
2022/05/10 07:41:39;;;;;;;7.78;3.70;;;23.50;89.70;;;;;;5017240;28;20393;-85
2022/05/10 07:44:05;;;;;;;10.95;4.20;;;23.40;90.30;;;;;;5035213;28;20484;-85
2022/05/10 07:46:31;;;;;;;9.50;4.10;;;23.30;89.70;;;;;;5018898;28;20373;-87
2022/05/10 07:49:00;;;;;;;8.55;4.60;;;23.30;90.40;;;;;;5035746;28;20397;-86
2022/05/10 07:51:26;;;;;;;10.80;4.07;;;22.90;87.50;;;;;;5016901;28;20374;-86
2022/05/10 07:53:51;;;;;;;11.77;4.00;;;22.70;89.20;;;;;;5016271;28;20440;-85
2022/05/10 07:56:18;;;;;;;9.57;3.87;;;22.40;90.00;;;;;;5035096;28;20380;-82
2022/05/10 07:58:43;;;;;;;10.70;3.77;;;22.30;90.60;;;;;;5016694;28;20396;-84
2022/05/10 08:01:09;;;;;;;7.40;3.35;;;22.20;90.90;;;;;;5034979;28;20397;-85
2022/05/10 08:03:35;;;;;;;8.23;3.50;;;22.30;91.40;;;;;;5032906;28;20377;-87
2022/05/10 08:06:01;;;;;;;8.30;3.90;;;22.50;91.90;;;;;;5014108;28;20413;-84
2022/05/10 08:08:29;;;;;;;14.15;4.00;;;22.60;90.60;;;;;;5039059;28;20391;-84
2022/05/10 08:10:55;;;;;;;10.75;3.72;;;22.90;90.40;;;;;;5030464;28;20412;-84
2022/05/10 08:13:24;;;;;;;7.77;3.97;;;23.10;87.60;;;;;;5029623;28;20384;-83
2022/05/10 08:15:50;;;;;;;8.48;3.60;;;23.10;86.80;;;;;;5046353;28;20384;-85
2022/05/10 08:18:17;;;;;;;5.45;3.28;;;23.10;88.50;;;;;;5031360;28;20385;-85
2022/05/10 08:20:43;;;;;;;6.47;3.70;;;23.20;88.30;;;;;;5039402;28;20384;-84
2022/05/10 08:23:11;;;;;;;7.60;3.80;;;23.40;88.70;;;;;;5032845;28;20433;-82
2022/05/10 08:25:37;;;;;;;7.93;3.85;;;23.60;88.40;;;;;;5045949;28;20380;-84
2022/05/10 08:28:03;;;;;;;12.53;3.43;;;23.90;87.20;;;;;;5030257;28;20369;-84
2022/05/10 08:30:29;;;;;;;26.63;5.37;;;24.00;86.40;;;;;;5043022;28;20378;-84
2022/05/10 08:32:55;;;;;;;8.43;3.60;;;24.30;86.00;;;;;;5040524;28;20378;-84
2022/05/10 08:35:21;;;;;;;18.83;4.53;;;24.40;86.40;;;;;;5018570;28;20401;-86
2022/05/10 08:37:46;;;;;;;7.10;3.37;;;24.40;84.40;;;;;;5049878;28;20388;-82
2022/05/10 08:40:27;;;;;;;7.50;3.40;;;24.20;86.50;;;;;;5032857;28;20475;-84
2022/05/10 08:42:56;;;;;;;6.85;3.15;;;24.30;84.40;;;;;;5050589;28;20387;-84
2022/05/10 08:45:24;;;;;;;7.18;3.42;;;24.40;82.60;;;;;;5032259;28;20873;-84
2022/05/10 08:47:50;;;;;;;20.13;4.30;;;24.40;81.60;;;;;;5049004;28;20387;-84
2022/05/10 08:50:16;;;;;;;12.07;3.60;;;24.40;86.40;;;;;;5033585;28;20467;-86
2022/05/10 08:52:45;;;;;;;7.22;3.25;;;24.50;84.20;;;;;;5035219;28;20427;-86
2022/05/10 08:55:15;;;;;;;11.27;3.60;;;24.70;84.50;;;;;;5056347;28;20383;-84
2022/05/10 08:58:00;;;;;;;8.00;3.40;;;24.80;86.70;;;;;;5053456;28;20394;-86
2022/05/10 09:00:29;;;;;;;7.25;3.25;;;24.90;85.30;;;;;;5052298;28;20417;-85
2022/05/10 09:02:57;;;;;;;28.67;5.32;;;25.20;99.90;;;;;;5059026;28;20873;-85
2022/05/10 09:05:28;;;;;;;6.70;2.95;;;25.20;99.90;;;;;;5054822;28;20437;-83
2022/05/10 09:08:22;;;;;;;12.00;3.30;;;25.10;99.90;;;;;;5037300;28;20892;-83
2022/05/10 09:11:14;;;;;;;6.90;3.35;;;25.10;99.90;;;;;;5054758;28;20425;-83
2022/05/10 09:13:42;;;;;;;7.03;3.17;;;25.00;99.90;;;;;;5056449;28;20383;-85
2022/05/10 09:16:12;;;;;;;9.48;3.80;;;25.20;99.90;;;;;;5055587;28;20368;-84
2022/05/10 09:18:52;;;;;;;8.25;3.08;;;25.30;99.90;;;;;;5054272;28;20410;-81
2022/05/10 09:21:48;;;;;;;5.80;2.53;;;25.10;99.90;;;;;;5036387;28;20395;-86
2022/05/10 09:24:21;;;;;;;25.77;4.77;;;25.20;99.90;;;;;;5035413;28;20486;-84
2022/05/10 09:26:51;;;;;;;10.30;3.33;;;25.30;99.90;;;;;;5053339;28;20411;-82
2022/05/10 09:29:37;;;;;;;8.98;3.17;;;;;;;;;;5053339;28;20371;-86
2022/05/10 09:35:22;;;;;;;7.40;2.42;;;;;;;;;;5047380;28;20382;-85
2022/05/10 09:37:50;;;;;;;8.35;2.72;;;;;;;;;;5051340;28;20381;-86
2022/05/10 09:40:24;;;;;;;7.53;2.65;;;;;;;;;;5028180;28;20381;-86
2022/05/10 09:42:51;;;;;;;4.03;2.40;;;;;;;;;;5043597;28;20397;-83
2022/05/10 09:45:22;;;;;;;5.63;2.67;;;;;;;;;;5025958;28;20483;-85
2022/05/10 09:48:03;;;;;;;16.98;3.55;;;;;;;;;;5043684;28;20431;-84
2022/05/10 09:50:34;;;;;;;8.23;2.65;;;;;;;;;;5043387;28;20369;-84
2022/05/10 09:53:12;;;;;;;9.23;2.83;;;;;;;;;;5026331;28;20376;-86
2022/05/10 09:55:40;;;;;;;9.05;3.00;;;;;;;;;;5043414;28;20395;-83
2022/05/10 09:58:17;;;;;;;5.75;2.60;;;;;;;;;;5025069;28;20376;-83
2022/05/10 10:00:44;;;;;;;5.43;2.90;;;;;;;;;;5044220;28;20366;-83
2022/05/10 10:03:19;;;;;;;8.82;3.25;;;;;;;;;;5027617;28;20726;-86
2022/05/10 10:05:45;;;;;;;6.38;3.10;;;;;;;;;;5026787;28;20479;-84
2022/05/10 10:08:11;;;;;;;15.15;4.03;;;;;;;;;;5044204;28;20449;-85
2022/05/10 10:10:38;;;;;;;7.22;3.03;;;;;;;;;;5045285;28;20890;-86
2022/05/10 10:13:23;;;;;;;9.88;3.28;;;;;;;;;;5044062;28;20383;-82
2022/05/10 10:15:49;;;;;;;6.30;3.30;;;;;;;;;;5056395;28;20365;-83
2022/05/10 10:18:35;;;;;;;8.00;3.42;;;;;;;;;;5045663;28;20367;-87
2022/05/10 10:21:02;;;;;;;6.85;2.70;;;;;;;;;;5027848;28;20431;-84
2022/05/10 10:23:32;;;;;;;10.93;3.25;;;;;;;;;;5025118;28;20374;-85
2022/05/10 10:26:07;;;;;;;11.55;3.53;;;;;;;;;;5025175;28;20454;-83
2022/05/10 10:28:52;;;;;;;7.60;2.75;;;;;;;;;;5055895;28;20857;-84
2022/05/10 10:31:21;;;;;;;7.32;2.90;;;;;;;;;;5047289;28;20458;-85
2022/05/10 10:33:51;;;;;;;8.93;3.35;;;;;;;;;;5053140;28;20450;-86
2022/05/10 10:36:23;;;;;;;5.70;2.60;;;27.40;70.80;;;;;;5046585;28;20879;-82
2022/05/10 10:39:13;;;;;;;6.22;2.63;;;27.50;72.30;;;;;;5025626;28;20881;-84
2022/05/10 10:42:01;;;;;;;8.52;2.97;;;27.50;72.30;;;;;;5045713;28;20393;-83
2022/05/10 10:44:30;;;;;;;3.87;2.60;;;27.60;75.00;;;;;;5026340;28;20370;-85
2022/05/10 10:47:08;;;;;;;13.40;3.03;;;27.50;74.30;;;;;;5027293;28;20385;-84
2022/05/10 10:50:03;;;;;;;6.97;3.15;;;27.70;72.90;;;;;;5035288;28;20386;-84
2022/05/10 10:52:31;;;;;;;3.92;2.72;;;27.70;72.60;;;;;;5036626;28;20440;-87
2022/05/10 10:54:57;;;;;;;4.82;2.83;;;27.80;73.70;;;;;;5028535;28;20475;-84
2022/05/10 10:57:41;;;;;;;4.82;2.50;;;27.70;73.10;;;;;;5047515;28;20873;-85
2022/05/10 11:00:15;;;;;;;5.25;2.88;;;27.90;71.60;;;;;;5053205;28;20426;-82
2022/05/10 11:02:58;;;;;;;6.03;2.88;;;27.70;70.00;;;;;;5026266;28;20397;-83
2022/05/10 11:05:45;;;;;;;8.52;2.95;;;27.30;71.70;;;;;;5046245;28;20460;-82
2022/05/10 11:08:35;;;;;;;7.30;2.92;;;27.20;72.00;;;;;;5043552;28;20410;-83
2022/05/10 11:11:20;;;;;;;7.20;2.87;;;27.40;72.20;;;;;;5046796;28;20387;-84
2022/05/10 11:13:51;;;;;;;5.03;2.78;;;27.40;72.40;;;;;;5039055;28;20464;-83
2022/05/10 11:16:43;;;;;;;11.18;3.40;;;27.40;72.30;;;;;;5025105;28;20407;-84
2022/05/10 11:19:19;;;;;;;5.82;2.97;;;27.40;73.90;;;;;;5042090;28;20857;-84
2022/05/10 11:22:21;;;;;;;5.00;2.88;;;27.40;74.20;;;;;;5043844;28;20405;-85
2022/05/10 11:25:25;;;;;;;4.82;2.70;;;27.50;72.80;;;;;;5042975;28;20379;-82
2022/05/10 11:28:03;;;;;;;5.47;2.95;;;27.70;72.60;;;;;;5039243;28;20381;-84
2022/05/10 11:30:34;;;;;;;7.95;2.90;;;27.80;72.80;;;;;;5016158;28;20401;-84
2022/05/10 11:33:24;;;;;;;4.93;2.83;;;27.70;72.00;;;;;;5027667;28;20394;-84
2022/05/10 11:35:58;;;;;;;5.28;2.60;;;27.80;72.10;;;;;;5049889;28;20385;-87
2022/05/10 11:38:48;;;;;;;8.05;2.83;;;27.90;73.00;;;;;;5043736;28;20382;-85
2022/05/10 11:41:24;;;;;;;5.43;2.60;;;28.10;71.40;;;;;;5043105;28;20392;-84
2022/05/10 11:44:01;;;;;;;6.55;3.00;;;28.00;73.10;;;;;;5045061;28;20371;-86
2022/05/10 11:46:46;;;;;;;6.60;3.15;;;27.90;70.90;;;;;;5043056;28;20923;-85
2022/05/10 11:49:20;;;;;;;5.40;2.90;;;27.70;72.10;;;;;;5043925;28;20928;-84
2022/05/10 11:52:25;;;;;;;6.20;3.20;;;27.70;72.70;;;;;;5025295;28;20511;-83
2022/05/10 11:54:53;;;;;;;6.68;2.88;;;27.80;71.60;;;;;;4977840;28;20756;-85
2022/05/10 11:57:21;;;;;;;6.78;2.97;;;27.70;72.30;;;;;;5050941;28;20383;-86
2022/05/10 11:59:48;;;;;;;5.80;3.00;;;27.80;71.90;;;;;;5015696;28;20803;-86
2022/05/10 12:02:29;;;;;;;7.43;3.17;;;27.90;72.00;;;;;;5047920;28;20766;-83
2022/05/10 12:05:13;;;;;;;5.47;2.70;;;28.00;71.40;;;;;;5032867;28;20436;-84
2022/05/10 12:07:46;;;;;;;7.13;2.63;;;28.30;72.20;;;;;;5052444;28;20408;-82
2022/05/10 12:10:38;;;;;;;37.53;5.13;;;28.40;71.50;;;;;;5040259;28;20410;-84
2022/05/10 12:13:08;;;;;;;4.90;2.90;;;28.30;70.00;;;;;;5032398;28;20873;-83
2022/05/10 12:21:32;;;;;;;5.82;2.85;;;27.90;70.20;;;;;;5044337;28;20406;-83
2022/05/10 12:24:20;;;;;;;3.55;2.65;;;28.00;71.70;;;;;;5034430;28;20892;-82
2022/05/10 12:26:48;;;;;;;5.53;3.17;;;28.40;71.00;;;;;;5051675;28;20382;-83
2022/05/10 12:29:32;;;;;;;3.75;3.00;;;28.40;68.50;;;;;;5052255;28;20371;-82
2022/05/10 12:32:03;;;;;;;5.38;3.05;;;28.30;70.10;;;;;;5051853;28;20375;-84
2022/05/10 12:35:06;;;;;;;6.45;3.15;;;28.00;69.60;;;;;;5052152;28;20430;-84
2022/05/10 12:37:52;;;;;;;7.25;3.03;;;28.10;69.90;;;;;;4999227;28;20376;-84
2022/05/10 12:40:34;;;;;;;10.50;3.45;;;27.90;70.60;;;;;;5055012;28;20398;-83
2022/05/10 12:43:23;;;;;;;10.02;3.30;;;27.90;68.60;;;;;;5038692;28;20739;-83
2022/05/10 12:45:55;;;;;;;12.35;3.65;;;27.60;69.70;;;;;;5056732;28;20941;-85
2022/05/10 12:48:48;;;;;;;5.13;3.00;;;27.80;70.60;;;;;;5038419;28;20762;-85
2022/05/10 12:52:12;;;;;;;8.13;3.10;;;27.90;69.00;;;;;;5056405;28;20468;-87
2022/05/10 12:54:44;;;;;;;5.45;2.95;;;27.80;70.10;;;;;;4958598;28;20400;-84
2022/05/10 12:57:37;;;;;;;5.30;3.10;;;27.90;71.30;;;;;;4955218;28;20385;-88
2022/05/10 13:00:12;;;;;;;4.03;3.10;;;28.10;69.40;;;;;;5022237;28;20467;-86
2022/05/10 13:03:05;;;;;;;5.82;2.85;;;28.20;69.30;;;;;;5036014;28;20407;-85
2022/05/10 13:06:10;;;;;;;4.25;2.50;;;28.40;69.70;;;;;;5038889;28;20433;-84
2022/05/10 13:09:33;;;;;;;6.90;2.93;;;28.70;68.60;;;;;;5027684;28;20508;-85
2022/05/10 13:12:10;;;;;;;4.30;2.90;;;29.00;66.90;;;;;;4959003;28;20895;-84
2022/05/10 13:14:43;;;;;;;4.40;2.92;;;29.00;66.60;;;;;;4954554;28;20465;-86
2022/05/10 13:17:11;;;;;;;7.13;2.90;;;28.80;66.40;;;;;;4996794;28;20383;-84
2022/05/10 13:19:41;;;;;;;14.33;3.47;;;28.70;65.30;;;;;;5053130;28;20715;-86
2022/05/10 13:22:10;;;;;;;5.05;3.00;;;28.80;66.60;;;;;;5053536;28;20411;-83
2022/05/10 13:24:37;;;;;;;4.30;2.85;;;28.70;68.30;;;;;;5037524;28;20390;-85
2022/05/10 13:27:04;;;;;;;16.80;3.95;;;28.80;68.10;;;;;;5054904;28;20424;-85
2022/05/10 13:29:48;;;;;;;4.40;2.80;;;29.00;67.60;;;;;;5046971;28;20414;-84
2022/05/10 13:32:33;;;;;;;5.53;2.50;;;29.20;65.50;;;;;;5034199;28;20385;-84
2022/05/10 13:35:11;;;;;;;11.97;3.03;;;29.00;64.50;;;;;;5033814;28;20389;-84
2022/05/10 13:37:40;;;;;;;4.38;2.58;;;28.90;65.80;;;;;;5033867;28;20370;-86
2022/05/10 13:40:31;;;;;;;3.17;2.53;;;28.90;65.60;;;;;;5033308;28;20382;-85
2022/05/10 13:43:08;;;;;;;3.80;2.58;;;28.90;64.30;;;;;;5015365;28;20751;-85
2022/05/10 13:45:35;;;;;;;9.02;3.35;;;28.80;65.20;;;;;;5034066;28;20365;-84
2022/05/10 13:48:06;;;;;;;3.97;2.58;;;29.10;64.80;;;;;;5033965;28;20870;-86